createdAt,value
2019-02-23T00:09:20.443Z,8.4
2019-02-23T00:19:25.021Z,8.3
2019-02-23T00:29:28.794Z,8.5
2019-02-23T00:39:32.248Z,8.9
2019-02-23T00:49:36.668Z,9.2
2019-02-23T00:59:40.218Z,9
2019-02-23T01:09:43.626Z,8.5
2019-02-23T01:19:48.093Z,8.6
2019-02-23T01:29:51.665Z,8.7
2019-02-23T01:39:55.110Z,8.7
2019-02-23T01:49:59.338Z,8.1
2019-02-23T02:00:02.841Z,8.5
2019-02-23T02:10:06.260Z,8.1
2019-02-23T02:20:11.204Z,8.4
2019-02-23T02:30:15.203Z,8
2019-02-23T02:40:18.684Z,8.2
2019-02-23T02:50:24.437Z,8.3
2019-02-23T03:00:28.392Z,8.5
2019-02-23T03:10:31.843Z,8.6
2019-02-23T03:20:36.790Z,8.6
2019-02-23T03:30:40.497Z,8.6
2019-02-23T03:40:43.954Z,8.6
2019-02-23T03:50:49.274Z,8.7
2019-02-23T04:00:53.050Z,8.7
2019-02-23T04:10:56.479Z,8.6
2019-02-23T04:21:01.957Z,8.6
2019-02-23T04:31:05.669Z,8.5
2019-02-23T04:41:09.125Z,8.5
2019-02-23T04:51:14.564Z,8.3
2019-02-23T05:01:18.486Z,8.2
2019-02-23T05:11:21.980Z,8.3
2019-02-23T05:21:26.598Z,8
2019-02-23T05:31:30.547Z,7.9
2019-02-23T05:41:34.116Z,8.1
2019-02-23T05:51:38.831Z,7.5
2019-02-23T06:01:43.642Z,7.1
2019-02-23T06:11:47.128Z,7.3
2019-02-23T06:21:53.939Z,7.5
2019-02-23T06:31:58.139Z,7.2
2019-02-23T06:42:01.573Z,6.6
2019-02-23T06:52:05.000Z,6.8
2019-02-23T07:02:08.467Z,6.4
2019-02-23T07:12:11.940Z,6.5
2019-02-23T07:22:16.013Z,6.7
2019-02-23T07:32:19.524Z,6.7
2019-02-23T07:42:22.992Z,7.1
2019-02-23T07:52:26.823Z,7.3
2019-02-23T08:02:30.331Z,8.1
2019-02-23T08:12:33.776Z,8.5
2019-02-23T08:22:37.686Z,9.1
2019-02-23T08:32:41.169Z,9.3
2019-02-23T08:42:44.700Z,9.1
2019-02-23T08:52:50.046Z,9.6
2019-02-23T09:02:53.919Z,10.3
2019-02-23T09:12:57.351Z,10.6
2019-02-23T09:23:00.801Z,10
2019-02-23T09:33:04.248Z,9.7
2019-02-23T09:43:07.686Z,9.5
2019-02-23T09:53:11.662Z,10.3
2019-02-23T10:03:15.153Z,10.8
2019-02-23T10:13:18.589Z,10.4
2019-02-23T10:23:22.523Z,10.6
2019-02-23T10:33:25.993Z,10.5
2019-02-23T10:43:29.450Z,9.9
2019-02-23T10:53:33.182Z,10
2019-02-23T11:03:36.678Z,10.3
2019-02-23T11:13:40.087Z,9.4
2019-02-23T11:23:44.573Z,9.7
2019-02-23T11:33:48.112Z,10
2019-02-23T11:43:51.567Z,10.2
2019-02-23T11:53:55.430Z,10.6
2019-02-23T12:03:58.929Z,10.4
2019-02-23T12:14:02.394Z,10.4
2019-02-23T12:24:06.493Z,10.7
2019-02-23T12:34:09.993Z,10.9
2019-02-23T12:44:13.378Z,10.7
2019-02-23T12:54:17.225Z,11.3
2019-02-23T13:04:20.739Z,11.1
2019-02-23T13:14:24.187Z,11.3
2019-02-23T13:24:28.608Z,11.6
2019-02-23T13:34:32.176Z,11.4
2019-02-23T13:44:35.600Z,11.6
2019-02-23T13:54:39.276Z,11.5
2019-02-23T14:04:42.762Z,11.5
2019-02-23T14:14:46.269Z,11.7
2019-02-23T14:24:50.564Z,11.2
2019-02-23T14:34:54.050Z,11.1
2019-02-23T14:44:58.518Z,10.9
2019-02-23T14:55:02.051Z,10.9
2019-02-23T15:05:05.471Z,10.9
2019-02-23T15:15:08.911Z,10.6
2019-02-23T15:25:13.368Z,10.6
2019-02-23T15:35:17.148Z,10.8
2019-02-23T15:45:20.614Z,11
2019-02-23T15:55:26.165Z,10.8
2019-02-23T16:05:33.317Z,10.4
2019-02-23T16:15:36.739Z,10.3
2019-02-23T16:25:40.187Z,10.3
2019-02-23T16:35:43.678Z,10.1
2019-02-23T16:45:47.086Z,10.3
2019-02-23T16:55:51.229Z,10
2019-02-23T17:05:54.791Z,9.6
2019-02-23T17:15:58.238Z,9.5
2019-02-23T17:26:04.400Z,9.9
2019-02-23T17:36:08.504Z,9.5
2019-02-23T17:46:11.956Z,9.2
2019-02-23T17:56:16.431Z,9.3
2019-02-23T18:06:19.884Z,9.3
2019-02-23T18:16:23.309Z,8.8
2019-02-23T18:26:26.727Z,8.8
2019-02-23T18:36:30.197Z,8.5
2019-02-23T18:46:33.649Z,8.3
2019-02-23T18:56:37.060Z,8.5
2019-02-23T19:06:40.503Z,8.5
2019-02-23T19:16:43.948Z,8.2
2019-02-23T19:26:47.378Z,7.8
2019-02-23T19:36:50.792Z,8.1
2019-02-23T19:46:54.291Z,7.4
2019-02-23T19:56:57.717Z,7.8
2019-02-23T20:07:01.161Z,7.8
2019-02-23T20:17:04.625Z,7.5
2019-02-23T20:27:08.041Z,7.7
2019-02-23T20:37:11.585Z,7.8
2019-02-23T20:47:15.036Z,7.7
2019-02-23T20:57:20.915Z,7.3
2019-02-23T21:07:24.364Z,7.1
2019-02-23T21:17:28.012Z,7.3
2019-02-23T21:27:31.438Z,7.3
2019-02-23T21:37:34.848Z,7.4
2019-02-23T21:47:38.300Z,6.8
2019-02-23T21:57:41.768Z,6.9
2019-02-23T22:07:45.226Z,7.2
2019-02-23T22:17:48.698Z,7.2
2019-02-23T22:27:52.184Z,7.3
2019-02-23T22:37:55.672Z,7
2019-02-23T22:47:59.095Z,6.9
2019-02-23T22:58:02.518Z,6.6
2019-02-23T23:08:05.954Z,6.7
2019-02-23T23:18:09.388Z,7
2019-02-23T23:28:12.855Z,6.5
2019-02-23T23:38:16.321Z,6.3
2019-02-23T23:48:19.750Z,6.1
2019-02-23T23:58:23.214Z,6.5
